createdAt,value
2019-05-22T00:02:31.976Z,13.42
2019-05-22T00:06:43.810Z,13.44
2019-05-22T00:10:49.732Z,13.08
2019-05-22T00:14:56.634Z,13.12
2019-05-22T00:19:03.480Z,13.35
2019-05-22T00:23:10.824Z,13.18
2019-05-22T00:27:17.998Z,13.22
2019-05-22T00:31:28.476Z,13.15
2019-05-22T00:35:37.038Z,13.25
2019-05-22T00:39:43.369Z,13.48
2019-05-22T00:43:51.610Z,13.50
2019-05-22T00:47:58.149Z,13.32
2019-05-22T00:52:20.637Z,13.49
2019-05-22T00:56:32.754Z,13.54
2019-05-22T01:00:44.842Z,13.35
2019-05-22T01:04:52.120Z,13.22
2019-05-22T01:09:05.775Z,13.25
2019-05-22T01:13:12.051Z,13.27
2019-05-22T01:17:19.956Z,13.14
2019-05-22T01:21:26.322Z,13.05
2019-05-22T01:25:34.457Z,13.01
2019-05-22T01:29:41.830Z,13.00
2019-05-22T01:33:52.486Z,12.88
2019-05-22T01:37:59.875Z,13.00
2019-05-22T01:42:10.538Z,12.99
2019-05-22T01:46:17.117Z,13.07
2019-05-22T01:50:50.042Z,13.25
2019-05-22T01:54:58.600Z,13.28
2019-05-22T01:59:05.444Z,13.19
2019-05-22T02:03:14.723Z,13.08
2019-05-22T02:07:20.814Z,12.99
2019-05-22T02:11:28.296Z,12.98
2019-05-22T02:15:35.927Z,13.06
2019-05-22T02:19:41.917Z,13.06
2019-05-22T02:23:48.750Z,12.94
2019-05-22T02:27:56.714Z,12.93
2019-05-22T02:32:04.286Z,12.77
2019-05-22T02:36:12.051Z,12.79
2019-05-22T02:40:26.135Z,12.95
2019-05-22T02:44:32.633Z,12.90
2019-05-22T02:48:42.477Z,12.80
2019-05-22T02:52:50.845Z,12.70
2019-05-22T02:56:57.206Z,12.62
2019-05-22T03:01:05.695Z,12.60
2019-05-22T03:05:13.278Z,12.69
2019-05-22T03:09:23.730Z,12.69
2019-05-22T03:14:01.172Z,12.59
2019-05-22T03:18:11.080Z,12.68
2019-05-22T03:22:34.677Z,12.69
2019-05-22T03:26:48.635Z,12.95
2019-05-22T03:30:55.602Z,13.05
2019-05-22T03:35:01.370Z,12.89
2019-05-22T03:39:12.087Z,12.90
2019-05-22T03:43:25.830Z,12.70
2019-05-22T03:47:32.450Z,12.81
2019-05-22T03:51:38.352Z,12.76
2019-05-22T03:55:45.174Z,12.71
2019-05-22T03:59:51.203Z,12.85
2019-05-22T04:03:58.590Z,12.95
2019-05-22T04:08:06.184Z,12.92
2019-05-22T04:12:13.493Z,13.01
2019-05-22T04:16:28.810Z,12.92
2019-05-22T04:20:35.169Z,12.89
2019-05-22T04:24:41.486Z,12.96
2019-05-22T04:28:52.136Z,13.04
2019-05-22T04:32:58.525Z,13.15
2019-05-22T04:37:05.531Z,13.07
2019-05-22T04:41:15.106Z,12.92
2019-05-22T04:45:21.882Z,12.89
2019-05-22T04:49:27.849Z,12.96
2019-05-22T04:53:34.146Z,12.99
2019-05-22T04:57:41.009Z,13.07
2019-05-22T05:01:48.372Z,13.31
2019-05-22T05:05:56.127Z,13.46
2019-05-22T05:10:02.057Z,13.39
2019-05-22T05:14:07.906Z,13.38
2019-05-22T05:18:14.638Z,13.19
2019-05-22T05:22:30.794Z,13.23
2019-05-22T05:26:38.548Z,13.25
2019-05-22T05:30:44.431Z,13.15
2019-05-22T05:34:54.837Z,13.18
2019-05-22T05:39:01.653Z,13.11
2019-05-22T05:43:09.994Z,13.06
2019-05-22T05:47:16.188Z,13.06
2019-05-22T05:51:25.651Z,13.12
2019-05-22T05:55:48.313Z,13.12
2019-05-22T05:59:55.015Z,13.05
2019-05-22T06:04:03.285Z,13.05
2019-05-22T06:08:09.524Z,13.09
2019-05-22T06:12:15.881Z,13.10
2019-05-22T06:16:26.645Z,13.10
2019-05-22T06:20:33.242Z,13.07
2019-05-22T06:24:52.417Z,13.10
2019-05-22T06:28:58.549Z,13.10
2019-05-22T06:33:13.574Z,13.12
2019-05-22T06:37:47.534Z,13.26
2019-05-22T06:41:54.353Z,13.31
2019-05-22T06:46:00.193Z,13.37
2019-05-22T06:50:08.328Z,13.67
2019-05-22T06:54:14.114Z,13.93
2019-05-22T06:58:20.245Z,14.19
2019-05-22T07:02:26.750Z,14.16
2019-05-22T07:06:34.201Z,14.48
2019-05-22T07:10:41.405Z,14.39
2019-05-22T07:14:57.847Z,14.52
2019-05-22T07:19:07.281Z,14.55
2019-05-22T07:23:15.056Z,14.80
2019-05-22T07:27:25.930Z,15.02
2019-05-22T07:31:32.158Z,14.92
2019-05-22T07:35:56.353Z,15.04
2019-05-22T07:39:47.667Z,15.34
2019-05-22T07:43:53.661Z,15.76
2019-05-22T07:48:01.027Z,15.78
2019-05-22T07:52:08.115Z,16.13
2019-05-22T07:56:16.213Z,16.01
2019-05-22T08:00:23.113Z,15.54
2019-05-22T08:04:31.723Z,15.33
2019-05-22T08:08:39.918Z,15.81
2019-05-22T08:12:45.683Z,16.17
2019-05-22T08:16:52.636Z,16.02
2019-05-22T08:21:00.175Z,16.24
2019-05-22T08:25:08.937Z,16.37
2019-05-22T08:29:17.070Z,16.34
2019-05-22T08:33:25.039Z,16.41
2019-05-22T08:41:41.467Z,15.87
2019-05-22T08:45:47.364Z,16.22
2019-05-22T08:49:54.054Z,16.24
2019-05-22T08:54:00.827Z,16.39
2019-05-22T08:58:07.730Z,16.40
2019-05-22T09:02:15.077Z,15.73
2019-05-22T09:06:21.195Z,15.14
2019-05-22T09:10:27.087Z,15.90
2019-05-22T09:14:32.898Z,17.96
2019-05-22T09:18:39.041Z,18.07
2019-05-22T09:22:47.097Z,18.95
2019-05-22T09:26:53.166Z,18.29
2019-05-22T09:30:59.842Z,17.97
2019-05-22T09:35:09.901Z,16.87
2019-05-22T09:39:16.097Z,16.63
2019-05-22T09:43:22.321Z,17.09
2019-05-22T09:47:29.272Z,16.94
2019-05-22T09:51:35.051Z,16.66
2019-05-22T09:55:40.775Z,16.43
2019-05-22T09:59:46.721Z,16.84
2019-05-22T10:03:53.544Z,16.72
2019-05-22T10:08:02.117Z,16.59
2019-05-22T10:12:08.986Z,16.85
2019-05-22T10:16:15.805Z,16.67
2019-05-22T10:20:22.976Z,17.28
2019-05-22T10:24:29.188Z,17.91
2019-05-22T10:28:35.993Z,17.82
2019-05-22T10:32:41.961Z,17.21
2019-05-22T10:36:48.154Z,17.15
2019-05-22T10:40:58.530Z,17.64
2019-05-22T10:45:02.293Z,18.07
2019-05-22T10:49:08.214Z,18.19
2019-05-22T10:53:30.582Z,17.60
2019-05-22T10:57:23.450Z,17.90
2019-05-22T11:01:30.753Z,18.26
2019-05-22T11:05:37.368Z,18.28
2019-05-22T11:09:44.615Z,18.84
2019-05-22T11:14:00.614Z,19.22
2019-05-22T11:17:58.781Z,19.56
2019-05-22T11:22:06.418Z,20.66
2019-05-22T11:26:15.415Z,20.88
2019-05-22T11:30:22.990Z,20.33
2019-05-22T11:34:29.601Z,19.95
2019-05-22T11:38:35.503Z,19.97
2019-05-22T11:42:41.763Z,21.41
2019-05-22T11:46:50.158Z,22.47
2019-05-22T11:51:01.070Z,23.95
2019-05-22T11:55:09.305Z,22.46
2019-05-22T11:59:16.403Z,22.47
2019-05-22T12:03:24.756Z,22.55
2019-05-22T12:07:30.523Z,23.52
2019-05-22T12:11:36.869Z,22.32
2019-05-22T12:15:42.889Z,23.69
2019-05-22T12:19:49.081Z,23.37
2019-05-22T12:23:55.204Z,23.52
2019-05-22T12:28:01.464Z,22.01
2019-05-22T12:32:09.560Z,21.07
2019-05-22T12:36:15.722Z,23.42
2019-05-22T12:40:25.709Z,22.12
2019-05-22T12:44:31.569Z,21.16
2019-05-22T12:48:42.798Z,22.72
2019-05-22T12:52:50.643Z,22.62
2019-05-22T12:56:56.740Z,23.93
2019-05-22T13:01:03.579Z,25.06
2019-05-22T13:05:14.298Z,25.40
2019-05-22T13:09:18.324Z,25.69
2019-05-22T13:13:24.562Z,25.65
2019-05-22T13:17:33.296Z,23.99
2019-05-22T13:21:40.576Z,25.28
2019-05-22T13:25:47.296Z,25.49
2019-05-22T13:29:55.329Z,26.16
2019-05-22T13:34:03.314Z,26.43
2019-05-22T13:38:09.610Z,25.91
2019-05-22T13:42:15.549Z,26.59
2019-05-22T13:46:21.488Z,25.37
2019-05-22T13:50:28.995Z,25.99
2019-05-22T13:54:35.949Z,25.38
2019-05-22T13:58:42.564Z,23.23
2019-05-22T14:02:48.869Z,23.33
2019-05-22T14:06:54.878Z,22.31
2019-05-22T14:11:00.825Z,23.07
2019-05-22T14:15:11.610Z,23.49
2019-05-22T14:19:18.164Z,23.65
2019-05-22T14:23:24.520Z,24.63
2019-05-22T14:27:30.458Z,24.34
2019-05-22T14:31:37.380Z,24.89
2019-05-22T14:35:48.823Z,25.10
2019-05-22T14:39:52.121Z,25.13
2019-05-22T14:43:58.410Z,25.33
2019-05-22T14:48:04.898Z,24.53
2019-05-22T14:52:11.538Z,24.18
2019-05-22T14:56:18.539Z,24.36
2019-05-22T15:00:24.758Z,23.05
2019-05-22T15:04:32.103Z,22.34
2019-05-22T15:08:38.014Z,22.54
2019-05-22T15:12:43.976Z,23.12
2019-05-22T15:16:49.988Z,23.12
2019-05-22T15:21:02.420Z,22.69
2019-05-22T15:25:10.015Z,22.39
2019-05-22T15:29:16.339Z,22.69
2019-05-22T15:33:22.917Z,22.64
2019-05-22T15:37:29.732Z,22.21
2019-05-22T15:41:38.182Z,22.11
2019-05-22T15:45:45.324Z,21.83
2019-05-22T15:49:51.038Z,21.87
2019-05-22T15:54:00.695Z,21.74
2019-05-22T15:58:07.889Z,21.52
2019-05-22T16:02:16.407Z,21.33
2019-05-22T16:06:26.366Z,21.30
2019-05-22T16:10:32.254Z,21.08
2019-05-22T16:14:39.253Z,21.04
2019-05-22T16:18:49.281Z,20.94
2019-05-22T16:22:56.050Z,20.96
2019-05-22T16:27:02.325Z,20.98
2019-05-22T16:31:10.504Z,21.03
2019-05-22T16:35:16.807Z,20.92
2019-05-22T16:39:23.929Z,20.31
2019-05-22T16:43:47.354Z,20.34
2019-05-22T16:47:38.309Z,20.35
2019-05-22T16:51:46.469Z,20.44
2019-05-22T16:55:52.244Z,20.53
2019-05-22T16:59:58.750Z,20.79
2019-05-22T17:04:06.215Z,20.73
2019-05-22T17:08:13.571Z,20.29
2019-05-22T17:12:20.379Z,20.03
2019-05-22T17:16:27.371Z,19.92
2019-05-22T17:20:33.928Z,20.01
2019-05-22T17:24:40.218Z,19.96
2019-05-22T17:28:46.901Z,19.93
2019-05-22T17:32:53.191Z,19.74
2019-05-22T17:37:00.465Z,19.60
2019-05-22T17:41:08.407Z,19.43
2019-05-22T17:45:18.037Z,19.31
2019-05-22T17:49:24.598Z,19.10
2019-05-22T17:53:30.925Z,19.18
2019-05-22T17:57:37.734Z,19.16
2019-05-22T18:01:43.844Z,19.15
2019-05-22T18:05:50.239Z,19.20
2019-05-22T18:09:56.470Z,19.17
2019-05-22T18:14:04.675Z,18.95
2019-05-22T18:18:11.282Z,18.93
2019-05-22T18:22:17.133Z,19.02
2019-05-22T18:26:23.410Z,18.97
2019-05-22T18:30:30.828Z,18.74
2019-05-22T18:34:36.589Z,18.75
2019-05-22T18:38:42.342Z,18.61
2019-05-22T18:42:48.902Z,18.39
2019-05-22T18:46:54.854Z,18.17
2019-05-22T18:51:01.084Z,17.75
2019-05-22T18:55:07.949Z,17.93
2019-05-22T18:59:13.813Z,17.82
2019-05-22T19:03:19.754Z,17.64
2019-05-22T19:07:25.584Z,17.43
2019-05-22T19:11:31.422Z,17.83
2019-05-22T19:15:37.580Z,17.84
2019-05-22T19:19:52.955Z,17.28
2019-05-22T19:23:58.956Z,16.87
2019-05-22T19:28:05.102Z,16.59
2019-05-22T19:32:11.002Z,16.35
2019-05-22T19:36:16.763Z,16.40
2019-05-22T19:40:25.580Z,16.20
2019-05-22T19:44:32.154Z,16.06
2019-05-22T19:48:38.008Z,15.89
2019-05-22T19:52:44.745Z,15.82
2019-05-22T19:56:51.993Z,15.98
2019-05-22T20:00:57.878Z,15.79
2019-05-22T20:05:06.901Z,15.76
2019-05-22T20:09:13.360Z,15.98
2019-05-22T20:13:22.014Z,16.12
2019-05-22T20:17:28.196Z,15.80
2019-05-22T20:21:34.763Z,15.70
2019-05-22T20:25:43.477Z,15.38
2019-05-22T20:29:49.830Z,15.04
2019-05-22T20:33:55.771Z,15.07
2019-05-22T20:38:02.175Z,15.06
2019-05-22T20:42:09.488Z,14.80
2019-05-22T20:46:18.667Z,14.57
2019-05-22T20:50:26.138Z,14.44
2019-05-22T20:54:32.720Z,14.25
2019-05-22T20:58:40.190Z,14.19
2019-05-22T21:02:46.781Z,14.09
2019-05-22T21:07:00.505Z,14.03
2019-05-22T21:11:08.793Z,14.04
2019-05-22T21:15:16.094Z,13.95
2019-05-22T21:19:24.152Z,13.83
2019-05-22T21:23:31.179Z,13.74
2019-05-22T21:27:38.488Z,13.73
2019-05-22T21:31:47.475Z,13.68
2019-05-22T21:35:52.891Z,13.69
2019-05-22T21:39:59.274Z,13.71
2019-05-22T21:44:05.313Z,13.96
2019-05-22T21:52:19.028Z,13.96
2019-05-22T21:56:25.161Z,13.69
2019-05-22T22:00:39.587Z,13.53
2019-05-22T22:04:46.760Z,13.67
2019-05-22T22:08:53.833Z,13.90
2019-05-22T22:12:59.802Z,13.62
2019-05-22T22:17:07.653Z,13.53
2019-05-22T22:21:15.359Z,13.66
2019-05-22T22:25:23.991Z,13.46
2019-05-22T22:29:30.306Z,13.23
2019-05-22T22:33:40.017Z,13.05
2019-05-22T22:37:46.596Z,13.14
2019-05-22T22:41:54.075Z,13.17
2019-05-22T22:46:22.959Z,12.90
2019-05-22T22:50:31.176Z,12.73
2019-05-22T22:54:37.807Z,12.54
2019-05-22T22:58:44.790Z,12.54
2019-05-22T23:02:51.869Z,12.62
2019-05-22T23:07:02.518Z,12.69
2019-05-22T23:11:09.201Z,12.58
2019-05-22T23:15:18.475Z,12.75
2019-05-22T23:19:35.137Z,13.01
2019-05-22T23:23:40.917Z,12.96
2019-05-22T23:27:47.329Z,12.83
2019-05-22T23:31:55.170Z,12.45
2019-05-22T23:36:01.807Z,12.27
2019-05-22T23:40:08.992Z,12.22
2019-05-22T23:44:19.516Z,12.07
2019-05-22T23:48:27.595Z,12.10
2019-05-22T23:52:33.788Z,12.35
2019-05-22T23:56:41.664Z,12.26
